Terminal Aerodrome Forecast
Issued by NWS Cleveland, OH

Home | Current Version | Previous Version | Graphics & Text | Print | Product List | Glossary On
Versions: 1 2 3 4 5 6 7 8 9 10 11 12 13 14 15 16 17 18 19 20
000
FTUS41 KCLE 040456 AAA
TAFYNG
TAF AMD
KYNG 040456Z 0405/0424 VRB04KT 3SM BR SCT045 OVC120
     FM040600 VRB04KT 5SM -SHRA BR BKN250
     FM041000 VRB04KT 4SM BR SCT010 BKN050
      TEMPO 0410/0413 2SM BR BKN003
     FM041400 18006KT P6SM SCT025
     FM041800 18008KT P6SM VCTS BKN045CB=

USA.gov is the U.S. government's official web portal to all federal, state and local government web resources and services.